Time;durP1;ratioP1;P1;durP2;ratioP2;P2;SDS_P1;SDS_P2;PMS_P1;PMS_P2;Temp;Humidity;BMP_temperature;BMP_pressure;BME280_temperature;BME280_humidity;BME280_pressure;Samples;Min_cycle;Max_cycle;Signal;HPM_P1;HPM_P2
2021/08/08 00:01:34;;;;;;;4.43;1.35;;;14.30;99.90;;;;;;5056339;28;20486;-85
2021/08/08 00:04:00;;;;;;;4.40;1.27;;;14.30;99.90;;;;;;5091350;28;20074;-86
2021/08/08 00:06:25;;;;;;;5.50;1.25;;;14.30;99.90;;;;;;5056320;28;20404;-84
2021/08/08 00:08:51;;;;;;;5.72;1.70;;;14.30;99.90;;;;;;5090779;28;20048;-86
2021/08/08 00:11:17;;;;;;;4.32;1.30;;;14.30;99.90;;;;;;5058182;28;20469;-85
2021/08/08 00:13:43;;;;;;;6.03;1.63;;;14.40;99.90;;;;;;5074221;28;20044;-91
2021/08/08 00:16:09;;;;;;;7.47;1.90;;;14.30;99.90;;;;;;5088498;28;20497;-86
2021/08/08 00:18:35;;;;;;;11.52;1.77;;;14.30;99.90;;;;;;5065081;28;20430;-89
2021/08/08 00:21:00;;;;;;;5.32;2.13;;;14.30;99.90;;;;;;5059480;28;20139;-85
2021/08/08 00:23:26;;;;;;;12.00;2.33;;;14.20;99.90;;;;;;5074326;28;20041;-85
2021/08/08 00:25:52;;;;;;;4.63;2.10;;;14.20;99.90;;;;;;5073604;28;20111;-85
2021/08/08 00:28:18;;;;;;;4.57;2.10;;;14.10;99.90;;;;;;5090697;28;20044;-85
2021/08/08 00:30:44;;;;;;;3.53;2.10;;;14.10;99.90;;;;;;5072915;28;20040;-88
2021/08/08 00:33:09;;;;;;;5.13;2.53;;;14.10;99.90;;;;;;5038848;28;20055;-84
2021/08/08 00:35:35;;;;;;;11.10;2.40;;;14.10;99.90;;;;;;5073029;28;20122;-87
2021/08/08 00:38:01;;;;;;;4.93;2.22;;;14.10;99.90;;;;;;5073712;28;20044;-86
2021/08/08 00:40:28;;;;;;;3.92;2.30;;;14.10;99.90;;;;;;5092232;28;20028;-87
2021/08/08 00:42:54;;;;;;;5.75;3.05;;;14.10;99.90;;;;;;5071634;28;20075;-84
2021/08/08 00:45:21;;;;;;;10.63;2.60;;;14.10;99.90;;;;;;5090120;28;20118;-84
2021/08/08 00:47:48;;;;;;;6.00;2.50;;;14.10;99.90;;;;;;5071904;28;20479;-88
2021/08/08 00:50:15;;;;;;;4.00;2.60;;;14.10;99.90;;;;;;5090145;28;20040;-84
2021/08/08 00:52:41;;;;;;;5.05;2.35;;;14.00;99.90;;;;;;5055679;28;20101;-85
2021/08/08 00:55:08;;;;;;;5.30;2.67;;;14.00;99.90;;;;;;5088729;28;20168;-85
2021/08/08 00:57:34;;;;;;;4.75;2.97;;;14.10;99.90;;;;;;5089700;28;20036;-85
2021/08/08 01:00:06;;;;;;;6.40;2.40;;;14.00;99.90;;;;;;5071402;28;20055;-84
2021/08/08 01:02:34;;;;;;;3.53;2.30;;;14.10;99.90;;;;;;5071685;28;20051;-85
2021/08/08 01:05:06;;;;;;;3.95;2.53;;;14.10;99.90;;;;;;5070975;28;20040;-85
2021/08/08 01:07:48;;;;;;;7.55;2.70;;;14.10;99.90;;;;;;5089808;28;20391;-84
2021/08/08 01:10:15;;;;;;;13.45;2.45;;;14.10;99.90;;;;;;5090059;28;20131;-87
2021/08/08 01:12:41;;;;;;;4.20;2.80;;;14.20;99.90;;;;;;5040364;28;20044;-88
2021/08/08 01:15:08;;;;;;;13.45;2.85;;;14.20;99.90;;;;;;5072658;28;20623;-88
2021/08/08 01:17:38;;;;;;;7.82;2.88;;;14.30;99.90;;;;;;5073693;28;20044;-89
2021/08/08 01:20:10;;;;;;;5.18;2.22;;;14.30;99.90;;;;;;5073262;28;20071;-88
2021/08/08 01:22:40;;;;;;;8.98;3.08;;;14.30;99.90;;;;;;5091586;28;20472;-88
2021/08/08 01:25:07;;;;;;;4.80;2.17;;;14.40;99.90;;;;;;5089372;28;20044;-86
2021/08/08 01:27:33;;;;;;;10.25;2.67;;;14.40;99.90;;;;;;5091143;28;20044;-86
2021/08/08 01:29:59;;;;;;;5.07;2.25;;;14.40;99.90;;;;;;5042990;28;20077;-85
2021/08/08 01:32:25;;;;;;;6.13;2.70;;;14.40;99.90;;;;;;5091650;28;20039;-85
2021/08/08 01:34:51;;;;;;;7.85;2.70;;;14.40;99.90;;;;;;5073814;28;20446;-90
2021/08/08 01:37:19;;;;;;;9.25;2.83;;;14.40;99.90;;;;;;5074678;28;20052;-87
2021/08/08 01:39:58;;;;;;;6.38;2.60;;;14.50;99.90;;;;;;5093122;28;20487;-88
2021/08/08 01:42:24;;;;;;;4.85;2.80;;;14.50;99.90;;;;;;5075289;28;20040;-87
2021/08/08 01:44:53;;;;;;;9.63;3.20;;;14.50;99.90;;;;;;5075115;28;20101;-90
2021/08/08 01:47:30;;;;;;;4.13;2.70;;;14.50;99.90;;;;;;5075263;28;20051;-88
2021/08/08 01:49:58;;;;;;;4.13;2.58;;;14.50;99.90;;;;;;5092516;28;20051;-88
2021/08/08 01:52:24;;;;;;;3.13;2.30;;;14.50;99.90;;;;;;5092549;28;20394;-87
2021/08/08 01:54:52;;;;;;;4.68;2.60;;;14.60;99.90;;;;;;5091967;28;20491;-87
2021/08/08 01:57:56;;;;;;;5.30;2.30;;;14.60;99.90;;;;;;5057964;28;20040;-87
2021/08/08 02:00:25;;;;;;;11.63;2.70;;;14.60;99.90;;;;;;5072752;28;20487;-85
2021/08/08 02:02:54;;;;;;;8.10;2.60;;;14.60;99.90;;;;;;5090967;28;20074;-85
2021/08/08 02:05:21;;;;;;;7.95;2.90;;;14.60;99.90;;;;;;5072409;28;20550;-85
2021/08/08 02:07:47;;;;;;;6.78;2.47;;;14.70;99.90;;;;;;5090419;28;20048;-86
2021/08/08 02:10:13;;;;;;;7.82;2.40;;;14.70;99.90;;;;;;5054630;28;20671;-85
2021/08/08 02:12:39;;;;;;;8.18;2.38;;;14.70;99.90;;;;;;5072241;28;20483;-86
2021/08/08 02:15:06;;;;;;;2.90;2.25;;;14.70;99.90;;;;;;5071798;28;20202;-86
2021/08/08 02:17:33;;;;;;;7.07;2.20;;;14.60;99.90;;;;;;5054464;28;20048;-85
2021/08/08 02:19:59;;;;;;;3.83;2.08;;;14.70;99.90;;;;;;5088168;28;20511;-87
2021/08/08 02:22:24;;;;;;;5.43;2.10;;;14.70;99.90;;;;;;5088794;28;20040;-86
2021/08/08 02:24:50;;;;;;;4.18;2.15;;;14.70;99.90;;;;;;5054436;28;20150;-86
2021/08/08 02:27:16;;;;;;;6.65;2.53;;;14.70;99.90;;;;;;5071029;28;20043;-85
2021/08/08 02:29:42;;;;;;;7.55;2.55;;;14.80;99.90;;;;;;5089567;28;20033;-85
2021/08/08 02:32:07;;;;;;;15.40;2.72;;;14.70;99.90;;;;;;5089554;28;20388;-85
2021/08/08 02:34:33;;;;;;;5.28;2.63;;;14.80;99.90;;;;;;5071605;28;20048;-85
2021/08/08 02:36:59;;;;;;;7.55;2.38;;;14.80;99.90;;;;;;5054270;28;20625;-87
2021/08/08 02:39:25;;;;;;;6.40;2.65;;;14.80;99.90;;;;;;5055515;28;20052;-88
2021/08/08 02:41:51;;;;;;;8.65;2.80;;;14.80;99.90;;;;;;5069027;28;20094;-85
2021/08/08 02:44:16;;;;;;;7.28;2.50;;;14.80;99.90;;;;;;5073416;28;20289;-87
2021/08/08 02:46:42;;;;;;;10.27;4.15;;;14.80;99.90;;;;;;5074659;28;20040;-89
2021/08/08 02:49:08;;;;;;;5.85;2.58;;;14.80;99.90;;;;;;5059211;28;20544;-86
2021/08/08 02:51:35;;;;;;;5.72;2.17;;;14.80;99.90;;;;;;5075202;28;20476;-87
2021/08/08 02:54:00;;;;;;;4.90;2.20;;;14.90;99.90;;;;;;5076705;28;20048;-88
2021/08/08 02:56:26;;;;;;;5.85;2.63;;;14.80;99.90;;;;;;5092706;28;20465;-89
2021/08/08 02:58:52;;;;;;;7.85;2.67;;;14.80;99.90;;;;;;5050818;28;20033;-87
2021/08/08 03:01:18;;;;;;;19.05;2.88;;;14.90;99.90;;;;;;5089980;28;20115;-86
2021/08/08 03:03:44;;;;;;;4.35;2.55;;;14.90;99.90;;;;;;5090781;28;20039;-88
2021/08/08 03:06:14;;;;;;;3.58;1.95;;;14.90;99.90;;;;;;5074461;28;20450;-88
2021/08/08 03:08:44;;;;;;;2.95;2.17;;;14.90;99.90;;;;;;5073892;28;20041;-89
2021/08/08 03:11:11;;;;;;;9.00;2.92;;;14.90;99.90;;;;;;5049544;28;20691;-89
2021/08/08 03:13:38;;;;;;;3.65;2.90;;;15.00;99.90;;;;;;5075803;28;20036;-89
2021/08/08 03:16:05;;;;;;;6.50;2.70;;;14.90;99.90;;;;;;5093037;28;20119;-88
2021/08/08 03:18:31;;;;;;;5.07;2.53;;;15.00;99.90;;;;;;5074980;28;20051;-88
2021/08/08 03:20:58;;;;;;;5.18;2.50;;;15.00;99.90;;;;;;5058514;28;20131;-89
2021/08/08 03:23:24;;;;;;;6.53;3.22;;;15.00;99.90;;;;;;5074357;28;20107;-87
2021/08/08 03:25:50;;;;;;;6.93;3.28;;;15.00;99.90;;;;;;5059161;28;20040;-88
2021/08/08 03:28:16;;;;;;;7.15;2.65;;;15.00;99.90;;;;;;5093635;28;20494;-86
2021/08/08 03:30:42;;;;;;;4.72;3.25;;;15.00;99.90;;;;;;5058206;28;20040;-88
2021/08/08 03:33:08;;;;;;;3.88;3.22;;;15.00;99.90;;;;;;5059678;28;20047;-87
2021/08/08 03:35:34;;;;;;;3.55;2.88;;;15.00;99.90;;;;;;5074989;28;20044;-91
2021/08/08 03:38:01;;;;;;;7.05;3.33;;;15.00;99.90;;;;;;5058140;28;20051;-92
2021/08/08 03:40:27;;;;;;;5.35;4.10;;;15.00;99.90;;;;;;5068127;28;20048;-88
2021/08/08 03:42:53;;;;;;;6.22;3.38;;;15.00;99.90;;;;;;5073786;28;20032;-87
2021/08/08 03:45:19;;;;;;;6.05;3.95;;;15.00;99.90;;;;;;5093879;28;20104;-87
2021/08/08 03:47:45;;;;;;;5.68;3.78;;;15.00;99.90;;;;;;5076247;28;20467;-86
2021/08/08 03:50:11;;;;;;;8.05;3.60;;;15.00;99.90;;;;;;5076250;28;20093;-87
2021/08/08 03:52:38;;;;;;;9.05;3.47;;;15.00;99.90;;;;;;5105861;28;20043;-86
2021/08/08 03:55:05;;;;;;;3.92;3.50;;;15.00;99.90;;;;;;5096036;28;20369;-91
2021/08/08 03:57:31;;;;;;;13.75;4.30;;;15.00;99.90;;;;;;5077066;28;20043;-87
2021/08/08 03:59:57;;;;;;;3.58;3.13;;;15.00;99.90;;;;;;5057696;28;20399;-85
2021/08/08 04:02:23;;;;;;;4.20;3.70;;;15.00;99.90;;;;;;5073740;28;20618;-85
2021/08/08 04:04:49;;;;;;;13.55;4.07;;;15.00;99.90;;;;;;5074110;28;20119;-84
2021/08/08 04:07:15;;;;;;;5.85;4.15;;;15.00;99.90;;;;;;5060626;28;20118;-85
2021/08/08 04:09:41;;;;;;;10.93;4.13;;;15.00;99.90;;;;;;5057134;28;20048;-84
2021/08/08 04:12:08;;;;;;;5.75;3.90;;;15.00;99.90;;;;;;5053586;28;20106;-90
2021/08/08 04:14:37;;;;;;;6.75;3.63;;;15.00;99.90;;;;;;5091401;28;20426;-85
2021/08/08 04:17:04;;;;;;;7.80;4.28;;;15.10;99.90;;;;;;5073896;28;20068;-84
2021/08/08 04:19:31;;;;;;;6.38;3.40;;;15.10;99.90;;;;;;5090897;28;20036;-84
2021/08/08 04:21:57;;;;;;;4.55;4.05;;;15.10;99.90;;;;;;5057610;28;20044;-85
2021/08/08 04:24:22;;;;;;;14.07;3.95;;;15.10;99.90;;;;;;5073183;28;20395;-85
2021/08/08 04:26:48;;;;;;;6.57;3.38;;;15.10;99.90;;;;;;5091451;28;20052;-85
2021/08/08 04:29:17;;;;;;;6.63;4.07;;;15.10;99.90;;;;;;5090672;28;20048;-85
2021/08/08 04:31:43;;;;;;;6.70;4.05;;;15.10;99.90;;;;;;5073802;28;20044;-85
2021/08/08 04:34:09;;;;;;;16.30;3.83;;;15.20;99.90;;;;;;5060334;28;20473;-90
2021/08/08 04:36:35;;;;;;;10.43;4.22;;;15.20;99.90;;;;;;5090754;28;20078;-85
2021/08/08 04:39:02;;;;;;;12.57;4.40;;;15.20;99.90;;;;;;5073494;28;20060;-85
2021/08/08 04:41:28;;;;;;;13.60;4.10;;;15.20;99.90;;;;;;5072875;28;20100;-88
2021/08/08 04:43:53;;;;;;;5.90;4.00;;;15.20;99.90;;;;;;5056966;28;20044;-84
2021/08/08 04:46:19;;;;;;;7.05;4.22;;;15.20;99.90;;;;;;5056536;28;20093;-85
2021/08/08 04:48:45;;;;;;;5.82;3.97;;;15.20;99.90;;;;;;5056884;28;20044;-85
2021/08/08 04:51:10;;;;;;;4.38;3.90;;;15.20;99.90;;;;;;5073296;28;20045;-91
2021/08/08 04:53:37;;;;;;;5.28;4.45;;;15.20;99.90;;;;;;5091167;28;20040;-86
2021/08/08 04:56:03;;;;;;;4.25;3.97;;;15.20;99.90;;;;;;5074214;28;20502;-87
2021/08/08 04:58:29;;;;;;;12.13;5.03;;;15.20;99.90;;;;;;5056389;28;20115;-85
2021/08/08 05:00:55;;;;;;;5.93;3.97;;;15.20;99.90;;;;;;5074427;28;20123;-87
2021/08/08 05:03:20;;;;;;;6.40;4.72;;;15.30;99.90;;;;;;5056570;28;20040;-87
2021/08/08 05:05:46;;;;;;;6.07;4.85;;;15.30;99.90;;;;;;5091834;28;20135;-86
2021/08/08 05:08:12;;;;;;;6.40;4.50;;;15.40;99.90;;;;;;5052414;28;20439;-89
2021/08/08 05:10:39;;;;;;;5.40;4.88;;;15.40;99.90;;;;;;5055424;28;20047;-86
2021/08/08 05:13:04;;;;;;;21.63;5.57;;;15.50;99.90;;;;;;5036828;28;20071;-86
2021/08/08 05:15:31;;;;;;;18.13;6.15;;;15.60;99.90;;;;;;5066310;28;20074;-87
2021/08/08 05:18:02;;;;;;;8.93;5.80;;;15.60;99.90;;;;;;5077368;28;20151;-87
2021/08/08 05:20:27;;;;;;;11.35;6.25;;;15.70;99.90;;;;;;5072730;28;20134;-88
2021/08/08 05:22:53;;;;;;;13.55;6.20;;;15.80;99.90;;;;;;5073040;28;20049;-86
2021/08/08 05:25:19;;;;;;;9.45;6.32;;;15.80;99.90;;;;;;5062576;28;20052;-85
2021/08/08 05:27:45;;;;;;;8.63;6.60;;;15.90;99.90;;;;;;5052531;28;20542;-85
2021/08/08 05:30:11;;;;;;;11.35;5.85;;;15.90;99.90;;;;;;5072833;28;20126;-86
2021/08/08 05:32:37;;;;;;;8.05;5.75;;;16.00;99.90;;;;;;5071896;28;20437;-86
2021/08/08 05:35:04;;;;;;;11.30;6.85;;;16.00;99.90;;;;;;5090599;28;20040;-87
2021/08/08 05:37:30;;;;;;;15.98;7.25;;;16.10;99.90;;;;;;5090622;28;20055;-87
2021/08/08 05:39:57;;;;;;;10.30;6.65;;;16.20;99.90;;;;;;5051747;28;20048;-87
2021/08/08 05:42:23;;;;;;;10.55;5.97;;;16.30;99.90;;;;;;5063009;28;20051;-88
2021/08/08 05:44:49;;;;;;;16.60;6.32;;;16.40;99.90;;;;;;5056303;28;20471;-87
2021/08/08 05:47:15;;;;;;;11.60;6.30;;;16.40;99.90;;;;;;5056677;28;20325;-90
2021/08/08 05:49:41;;;;;;;12.77;6.65;;;16.40;99.90;;;;;;5073251;28;20044;-86
2021/08/08 05:52:07;;;;;;;8.55;5.97;;;16.40;99.90;;;;;;5073678;28;20050;-86
2021/08/08 05:54:34;;;;;;;11.02;6.72;;;16.40;99.90;;;;;;5090494;28;20055;-86
2021/08/08 05:57:01;;;;;;;10.00;5.45;;;16.40;99.90;;;;;;5096856;28;20559;-86
2021/08/08 05:59:27;;;;;;;10.85;5.88;;;16.60;99.90;;;;;;5058527;28;20147;-86
2021/08/08 06:01:53;;;;;;;13.05;5.80;;;16.70;99.90;;;;;;5070044;28;20071;-86
2021/08/08 06:04:19;;;;;;;7.25;5.18;;;16.70;99.90;;;;;;5072546;28;20040;-91
2021/08/08 06:06:44;;;;;;;8.20;5.03;;;16.80;99.90;;;;;;5072376;28;20043;-87
2021/08/08 06:09:10;;;;;;;7.63;4.72;;;16.80;99.90;;;;;;5090336;28;20038;-86
2021/08/08 06:11:37;;;;;;;11.07;5.18;;;16.80;99.90;;;;;;5090257;28;20147;-87
2021/08/08 06:14:04;;;;;;;12.55;4.72;;;16.80;99.90;;;;;;5056998;28;20068;-87
2021/08/08 06:16:30;;;;;;;10.23;3.50;;;16.90;99.90;;;;;;5091783;28;20044;-87
2021/08/08 06:18:56;;;;;;;5.25;3.17;;;17.00;99.90;;;;;;5093839;28;20446;-88
2021/08/08 06:21:21;;;;;;;7.45;3.45;;;17.00;99.90;;;;;;5094848;28;20040;-92
2021/08/08 06:23:47;;;;;;;3.67;2.47;;;17.10;99.90;;;;;;5049166;28;20044;-90
2021/08/08 06:26:13;;;;;;;5.63;2.53;;;17.10;99.90;;;;;;5074193;28;20048;-88
2021/08/08 06:28:39;;;;;;;11.07;3.78;;;17.20;99.90;;;;;;5094654;28;20111;-88
2021/08/08 06:31:05;;;;;;;3.65;2.13;;;17.40;99.90;;;;;;5060583;28;20094;-88
2021/08/08 06:33:31;;;;;;;5.30;1.80;;;17.40;99.90;;;;;;5076055;28;20037;-87
2021/08/08 06:35:58;;;;;;;2.90;1.60;;;17.40;99.90;;;;;;5044094;28;20075;-88
2021/08/08 06:38:24;;;;;;;3.40;1.42;;;17.50;99.90;;;;;;5075716;28;20121;-87
2021/08/08 06:40:49;;;;;;;5.90;1.60;;;17.60;99.90;;;;;;5075328;28;20551;-86
2021/08/08 06:43:15;;;;;;;2.55;1.50;;;17.70;99.90;;;;;;5042994;28;20044;-88
2021/08/08 06:45:41;;;;;;;4.45;1.60;;;17.80;99.90;;;;;;5058963;28;20177;-87
2021/08/08 06:48:07;;;;;;;2.88;2.03;;;17.80;99.90;;;;;;5094018;28;20392;-85
2021/08/08 06:50:33;;;;;;;7.55;1.42;;;17.90;99.90;;;;;;5093409;28;20493;-86
2021/08/08 06:52:59;;;;;;;8.75;3.28;;;17.90;99.90;;;;;;5094099;28;20036;-86
2021/08/08 06:55:25;;;;;;;6.88;2.10;;;17.90;99.90;;;;;;5060257;28;20059;-88
2021/08/08 06:57:51;;;;;;;3.35;1.73;;;17.90;99.90;;;;;;5045813;28;20044;-86
2021/08/08 07:00:17;;;;;;;3.83;1.80;;;17.90;99.90;;;;;;5062349;28;20105;-84
2021/08/08 07:02:45;;;;;;;6.03;2.03;;;17.80;99.90;;;;;;5096856;28;20571;-87
2021/08/08 07:05:11;;;;;;;5.43;2.38;;;17.80;99.90;;;;;;5061992;28;20491;-87
2021/08/08 07:07:37;;;;;;;5.88;2.33;;;17.60;99.90;;;;;;5073582;28;20093;-87
2021/08/08 07:10:04;;;;;;;7.85;2.95;;;17.50;99.90;;;;;;5062154;28;20036;-87
2021/08/08 07:12:29;;;;;;;4.53;2.13;;;17.50;99.90;;;;;;5068836;28;20507;-87
2021/08/08 07:14:55;;;;;;;4.43;1.92;;;17.40;99.90;;;;;;5095834;28;20040;-86
2021/08/08 07:17:21;;;;;;;7.22;2.20;;;17.50;99.90;;;;;;5077554;28;20068;-87
2021/08/08 07:19:47;;;;;;;2.78;1.80;;;17.60;99.90;;;;;;5077273;28;20165;-88
2021/08/08 07:22:14;;;;;;;2.78;1.35;;;17.70;99.90;;;;;;5045037;28;20125;-88
2021/08/08 07:24:39;;;;;;;1.58;1.30;;;17.70;99.90;;;;;;5094227;28;20081;-89
2021/08/08 07:27:05;;;;;;;2.00;1.27;;;17.60;99.90;;;;;;5095431;28;20040;-87
2021/08/08 07:29:31;;;;;;;1.00;1.00;;;17.50;99.90;;;;;;5047948;28;20055;-87
2021/08/08 07:31:57;;;;;;;2.42;1.08;;;17.50;99.90;;;;;;5066859;28;20040;-86
2021/08/08 07:34:23;;;;;;;2.60;1.10;;;17.40;99.90;;;;;;5071354;28;20046;-86
2021/08/08 07:36:49;;;;;;;4.30;1.08;;;17.40;99.90;;;;;;5081789;28;20072;-86
2021/08/08 07:39:14;;;;;;;2.47;1.00;;;17.40;99.90;;;;;;5092546;28;20511;-87
2021/08/08 07:41:41;;;;;;;3.75;1.30;;;17.30;99.90;;;;;;5056180;28;20127;-87
2021/08/08 07:44:06;;;;;;;2.53;1.60;;;17.10;99.90;;;;;;5073369;28;20068;-87
2021/08/08 07:46:32;;;;;;;4.03;1.60;;;17.00;99.90;;;;;;5090912;28;20078;-87
2021/08/08 07:48:58;;;;;;;4.90;1.90;;;16.90;99.90;;;;;;5056788;28;20110;-86
2021/08/08 07:51:24;;;;;;;8.82;2.00;;;16.80;99.90;;;;;;5056722;28;20451;-86
2021/08/08 07:53:50;;;;;;;8.38;2.42;;;16.70;99.90;;;;;;5072961;28;20044;-86
2021/08/08 07:56:16;;;;;;;5.72;2.30;;;16.70;99.90;;;;;;5073795;28;20040;-89
2021/08/08 07:58:42;;;;;;;6.10;2.22;;;16.60;99.90;;;;;;5073701;28;20498;-88
2021/08/08 08:01:07;;;;;;;7.85;2.72;;;16.60;99.90;;;;;;5073848;28;20407;-89
2021/08/08 08:03:33;;;;;;;5.88;2.78;;;16.60;99.90;;;;;;5091394;28;20492;-88
2021/08/08 08:05:59;;;;;;;8.95;3.20;;;16.60;99.90;;;;;;5073846;28;20094;-88
2021/08/08 08:08:25;;;;;;;10.18;3.00;;;16.60;99.90;;;;;;5048262;28;20036;-88
2021/08/08 08:10:51;;;;;;;9.32;2.83;;;16.60;99.90;;;;;;5073359;28;20046;-88
2021/08/08 08:13:16;;;;;;;8.77;2.83;;;16.60;99.90;;;;;;5057066;28;20086;-88
2021/08/08 08:15:42;;;;;;;11.63;3.60;;;16.70;99.90;;;;;;5072876;28;20077;-87
2021/08/08 08:18:08;;;;;;;9.75;3.47;;;16.70;99.90;;;;;;5057121;28;20419;-89
2021/08/08 08:20:35;;;;;;;6.78;3.08;;;16.70;99.90;;;;;;5073309;28;20139;-88
2021/08/08 08:23:01;;;;;;;8.57;2.75;;;16.80;99.90;;;;;;5056953;28;20039;-90
2021/08/08 08:25:28;;;;;;;8.40;2.90;;;17.00;99.90;;;;;;5041211;28;20048;-87
2021/08/08 08:27:54;;;;;;;16.33;3.65;;;17.10;99.90;;;;;;5055184;28;20039;-87
2021/08/08 08:30:20;;;;;;;7.97;3.47;;;17.20;99.90;;;;;;5072277;28;20403;-90
2021/08/08 08:32:46;;;;;;;9.40;3.75;;;17.30;99.90;;;;;;5054847;28;20048;-89
2021/08/08 08:35:12;;;;;;;11.05;3.00;;;17.40;99.90;;;;;;5090516;28;20528;-91
2021/08/08 08:37:38;;;;;;;10.82;3.33;;;17.60;99.90;;;;;;5072989;28;20555;-88
2021/08/08 08:40:05;;;;;;;14.43;3.88;;;17.70;99.90;;;;;;5056542;28;20127;-88
2021/08/08 08:42:34;;;;;;;15.27;3.33;;;17.80;99.90;;;;;;5055387;28;20051;-91
2021/08/08 08:45:01;;;;;;;9.80;3.20;;;17.80;99.90;;;;;;5070481;28;20036;-89
2021/08/08 08:47:29;;;;;;;15.60;4.07;;;17.70;99.90;;;;;;5071939;28;20443;-88
2021/08/08 08:49:59;;;;;;;12.20;3.75;;;17.70;99.90;;;;;;5071050;28;20036;-89
2021/08/08 08:52:27;;;;;;;14.35;4.38;;;17.70;99.90;;;;;;5071278;28;20038;-88
2021/08/08 08:54:54;;;;;;;15.18;4.15;;;17.80;99.90;;;;;;5053129;28;20056;-87
2021/08/08 08:57:21;;;;;;;11.30;3.83;;;17.90;99.90;;;;;;5088367;28;20040;-87
2021/08/08 08:59:48;;;;;;;18.52;5.57;;;18.00;99.90;;;;;;5069913;28;20040;-87
2021/08/08 09:02:14;;;;;;;16.25;4.43;;;18.20;99.90;;;;;;5087526;28;20060;-86
2021/08/08 09:04:41;;;;;;;19.13;4.25;;;18.30;99.90;;;;;;5087671;28;20044;-86
2021/08/08 09:07:07;;;;;;;14.60;3.63;;;18.30;99.90;;;;;;5088117;28;20079;-86
2021/08/08 09:09:34;;;;;;;13.15;3.08;;;18.40;99.90;;;;;;5070350;28;20040;-87
2021/08/08 09:12:00;;;;;;;15.02;3.20;;;18.50;99.90;;;;;;5059335;28;20059;-86
2021/08/08 09:14:26;;;;;;;16.35;3.58;;;18.60;99.90;;;;;;5069537;28;20509;-86
2021/08/08 09:16:54;;;;;;;17.70;3.72;;;18.60;99.90;;;;;;5067438;28;20044;-88
2021/08/08 09:19:25;;;;;;;13.80;3.47;;;18.70;99.90;;;;;;5086484;28;20052;-87
2021/08/08 09:21:51;;;;;;;13.40;3.45;;;18.80;99.90;;;;;;5086258;28;20035;-87
2021/08/08 09:24:25;;;;;;;10.45;2.65;;;18.90;99.90;;;;;;5085341;28;20028;-88
2021/08/08 09:27:06;;;;;;;13.68;3.30;;;19.00;99.90;;;;;;5066837;28;20043;-84
2021/08/08 09:29:34;;;;;;;15.15;3.40;;;19.00;99.90;;;;;;5050670;28;20051;-87
2021/08/08 09:32:01;;;;;;;9.88;2.80;;;19.10;99.90;;;;;;5065693;28;20044;-87
2021/08/08 09:34:34;;;;;;;11.48;2.97;;;19.20;99.90;;;;;;5066838;28;20063;-90
2021/08/08 09:37:06;;;;;;;9.13;2.72;;;19.10;99.90;;;;;;5086338;28;20916;-85
2021/08/08 09:39:35;;;;;;;12.15;3.05;;;19.00;99.90;;;;;;5089136;28;20036;-86
2021/08/08 09:42:22;;;;;;;8.20;2.72;;;18.90;99.90;;;;;;5070196;28;20059;-86
2021/08/08 09:44:55;;;;;;;7.63;2.50;;;18.50;99.90;;;;;;5070733;28;20059;-87
2021/08/08 09:47:34;;;;;;;10.40;3.10;;;18.20;99.90;;;;;;5079817;28;20040;-85
2021/08/08 09:50:04;;;;;;;11.80;2.92;;;18.10;99.90;;;;;;5072080;28;20035;-85
2021/08/08 09:52:30;;;;;;;9.13;2.72;;;18.00;99.90;;;;;;5075306;28;20040;-85
2021/08/08 09:54:56;;;;;;;15.23;3.70;;;17.90;99.90;;;;;;5073579;28;20427;-85
2021/08/08 09:57:23;;;;;;;13.25;2.97;;;17.90;99.90;;;;;;5074622;28;20036;-84
2021/08/08 09:59:50;;;;;;;14.50;3.28;;;17.90;99.90;;;;;;5057651;28;20391;-85
2021/08/08 10:02:21;;;;;;;12.55;2.50;;;17.90;99.90;;;;;;5073529;28;20040;-86
2021/08/08 10:04:51;;;;;;;13.18;3.17;;;18.00;99.90;;;;;;5073998;28;20067;-85
2021/08/08 10:07:17;;;;;;;;;;;18.10;99.90;;;;;;5075447;28;20038;-86
2021/08/08 10:09:48;;;;;;;10.07;2.95;;;18.10;99.90;;;;;;5074502;28;20413;-86
2021/08/08 10:12:41;;;;;;;10.75;2.95;;;18.10;99.90;;;;;;5089856;28;20052;-85
2021/08/08 10:15:08;;;;;;;17.25;3.97;;;18.10;99.90;;;;;;5074214;28;20046;-86
2021/08/08 10:17:35;;;;;;;14.38;3.58;;;17.90;99.90;;;;;;5057787;28;20043;-85
2021/08/08 10:20:02;;;;;;;14.05;3.83;;;17.80;99.90;;;;;;5074030;28;20056;-86
2021/08/08 10:22:32;;;;;;;12.75;3.53;;;17.90;99.90;;;;;;5083094;28;20044;-86
2021/08/08 10:24:59;;;;;;;18.13;3.40;;;18.00;99.90;;;;;;5082049;28;20044;-86
2021/08/08 10:27:26;;;;;;;19.17;3.58;;;18.20;99.90;;;;;;5056526;28;20051;-87
2021/08/08 10:29:56;;;;;;;13.65;3.15;;;18.40;99.90;;;;;;5073696;28;20040;-88
2021/08/08 10:32:29;;;;;;;15.50;3.47;;;18.70;99.90;;;;;;5091291;28;20123;-89
2021/08/08 10:34:55;;;;;;;16.20;3.72;;;18.80;99.90;;;;;;5073919;28;20043;-86
2021/08/08 10:37:22;;;;;;;13.98;3.38;;;18.80;99.90;;;;;;5074557;28;20064;-87
2021/08/08 10:39:49;;;;;;;16.33;3.58;;;18.90;99.90;;;;;;5073346;28;20044;-87
2021/08/08 10:42:16;;;;;;;16.45;3.08;;;19.00;99.90;;;;;;5073479;28;20065;-86
2021/08/08 10:44:49;;;;;;;15.00;3.35;;;19.30;99.90;;;;;;5073931;28;20118;-86
2021/08/08 10:47:30;;;;;;;18.92;3.28;;;19.60;99.90;;;;;;5092143;28;20109;-85
2021/08/08 10:50:12;;;;;;;16.85;3.65;;;19.90;99.90;;;;;;5056330;28;20058;-85
2021/08/08 10:52:40;;;;;;;15.70;3.33;;;20.20;99.90;;;;;;5091957;28;20043;-85
2021/08/08 10:55:07;;;;;;;12.00;2.90;;;20.10;99.90;;;;;;5055948;28;20306;-83
2021/08/08 10:57:43;;;;;;;10.85;3.08;;;20.00;99.90;;;;;;5070975;28;20059;-84
2021/08/08 11:00:16;;;;;;;11.07;2.83;;;20.10;99.90;;;;;;5072303;28;20036;-83
2021/08/08 11:02:44;;;;;;;13.48;2.58;;;20.30;99.90;;;;;;5086495;28;20507;-84
2021/08/08 11:05:12;;;;;;;10.13;3.13;;;20.30;99.90;;;;;;5072596;28;20051;-84
2021/08/08 11:07:39;;;;;;;11.98;2.90;;;20.50;99.90;;;;;;5091337;28;20047;-86
2021/08/08 11:10:05;;;;;;;12.98;3.15;;;20.50;99.90;;;;;;5056200;28;20078;-83
2021/08/08 11:12:36;;;;;;;15.27;3.15;;;20.60;99.90;;;;;;5073147;28;20048;-84
2021/08/08 11:15:03;;;;;;;12.60;2.83;;;20.70;99.90;;;;;;5089072;28;20173;-82
2021/08/08 11:17:32;;;;;;;13.52;2.95;;;20.90;99.90;;;;;;5091437;28;20122;-83
2021/08/08 11:19:58;;;;;;;8.80;2.60;;;21.00;99.90;;;;;;5088957;28;20502;-83
2021/08/08 11:22:24;;;;;;;11.98;3.15;;;21.10;99.90;;;;;;5056078;28;20048;-84
2021/08/08 11:24:57;;;;;;;11.52;3.28;;;21.10;99.90;;;;;;5090886;28;20482;-87
2021/08/08 11:27:43;;;;;;;15.35;3.53;;;21.10;99.90;;;;;;5070430;28;20036;-82
2021/08/08 11:30:13;;;;;;;13.77;2.67;;;21.10;99.90;;;;;;5076321;28;20036;-83
2021/08/08 11:32:43;;;;;;;12.80;2.38;;;21.20;99.90;;;;;;5070703;28;20403;-83
2021/08/08 11:35:10;;;;;;;20.00;2.92;;;21.30;99.90;;;;;;5086388;28;20085;-84
2021/08/08 11:37:38;;;;;;;12.82;2.83;;;21.30;99.90;;;;;;5085261;28;20449;-84
2021/08/08 11:40:18;;;;;;;14.30;3.55;;;21.30;99.90;;;;;;5088769;28;20043;-83
2021/08/08 11:42:44;;;;;;;;;;;21.30;99.90;;;;;;5068402;28;20047;-83
2021/08/08 11:45:10;;;;;;;20.65;2.83;;;21.30;99.90;;;;;;5048840;28;19920;-82
2021/08/08 11:47:36;;;;;;;12.30;2.78;;;21.40;99.90;;;;;;5081360;28;20052;-83
2021/08/08 11:50:05;;;;;;;9.05;2.80;;;21.40;99.90;;;;;;5076546;28;20373;-83
2021/08/08 11:52:32;;;;;;;15.43;3.22;;;21.30;99.90;;;;;;5090162;28;20118;-83
2021/08/08 11:55:01;;;;;;;19.83;3.55;;;21.00;99.90;;;;;;5071220;28;20051;-82
2021/08/08 11:57:29;;;;;;;14.82;3.13;;;20.60;99.90;;;;;;5071458;28;20036;-85
2021/08/08 11:59:56;;;;;;;8.25;2.58;;;20.30;99.90;;;;;;5071669;28;20046;-86
2021/08/08 12:02:26;;;;;;;7.00;2.28;;;20.50;99.90;;;;;;5071027;28;20047;-83
2021/08/08 12:04:53;;;;;;;6.82;2.17;;;20.50;99.90;;;;;;5083918;28;20039;-85
2021/08/08 12:07:22;;;;;;;8.85;2.50;;;20.60;99.90;;;;;;5089642;28;20047;-84
2021/08/08 12:09:49;;;;;;;11.13;2.40;;;20.70;99.90;;;;;;5071985;28;20115;-84
2021/08/08 12:12:16;;;;;;;14.18;2.15;;;20.80;99.90;;;;;;5089062;28;20044;-83
2021/08/08 12:14:55;;;;;;;14.52;2.78;;;20.90;99.90;;;;;;5061588;28;20037;-83
2021/08/08 12:17:22;;;;;;;12.97;2.67;;;21.00;99.90;;;;;;5081857;28;20141;-84
2021/08/08 12:19:50;;;;;;;11.75;2.67;;;21.10;99.90;;;;;;5055392;28;20302;-83
2021/08/08 12:22:24;;;;;;;14.88;3.30;;;21.20;99.90;;;;;;5070445;28;20507;-85
2021/08/08 12:25:05;;;;;;;12.52;2.55;;;21.20;99.90;;;;;;5084968;28;20119;-83
2021/08/08 12:27:43;;;;;;;10.82;2.33;;;21.20;99.90;;;;;;5071128;28;20565;-84
2021/08/08 12:30:13;;;;;;;15.77;3.30;;;21.30;99.90;;;;;;5053750;28;20471;-82
2021/08/08 12:32:41;;;;;;;18.88;3.08;;;21.30;99.90;;;;;;5062621;28;20114;-83
2021/08/08 12:35:12;;;;;;;10.88;2.72;;;21.10;99.90;;;;;;5087037;28;20040;-84
2021/08/08 12:37:39;;;;;;;6.38;2.47;;;21.30;99.90;;;;;;5069968;28;20123;-86
2021/08/08 12:40:18;;;;;;;11.32;2.65;;;21.60;99.90;;;;;;5084106;28;20036;-85
2021/08/08 12:42:45;;;;;;;12.00;2.83;;;22.00;99.90;;;;;;5081640;28;20164;-85
2021/08/08 12:45:13;;;;;;;13.75;3.15;;;22.30;99.90;;;;;;5070448;28;20028;-84